createdAt,value
2022-09-28T00:00:28.000Z,7.88
2022-09-28T00:01:28.000Z,7.86
2022-09-28T00:02:28.000Z,7.91
2022-09-28T00:03:28.000Z,7.88
2022-09-28T00:04:28.000Z,7.85
2022-09-28T00:05:28.000Z,7.84
2022-09-28T00:06:28.000Z,7.86
2022-09-28T00:07:28.000Z,7.81
2022-09-28T00:08:28.000Z,7.81
2022-09-28T00:09:28.000Z,7.81
2022-09-28T00:10:28.000Z,7.79
2022-09-28T00:11:28.000Z,7.81
2022-09-28T00:12:28.000Z,7.79
2022-09-28T00:13:28.000Z,7.74
2022-09-28T00:14:28.000Z,7.71
2022-09-28T00:15:28.000Z,7.74
2022-09-28T00:16:28.000Z,7.79
2022-09-28T00:17:28.000Z,7.73
2022-09-28T00:18:28.000Z,7.71
2022-09-28T00:19:28.000Z,7.69
2022-09-28T00:20:28.000Z,7.70
2022-09-28T00:21:28.000Z,7.74
2022-09-28T00:22:28.000Z,7.71
2022-09-28T00:23:28.000Z,7.73
2022-09-28T00:24:28.000Z,7.71
2022-09-28T00:25:28.000Z,7.74
2022-09-28T00:26:28.000Z,7.71
2022-09-28T00:27:28.000Z,7.73
2022-09-28T00:28:28.000Z,7.73
2022-09-28T00:29:28.000Z,7.71
2022-09-28T00:30:28.000Z,7.74
2022-09-28T00:31:28.000Z,7.71
2022-09-28T00:32:28.000Z,7.73
2022-09-28T00:33:28.000Z,7.73
2022-09-28T00:34:28.000Z,7.79
2022-09-28T00:35:28.000Z,7.79
2022-09-28T00:36:28.000Z,7.82
2022-09-28T00:37:28.000Z,7.84
2022-09-28T00:38:28.000Z,7.89
2022-09-28T00:39:28.000Z,7.88
2022-09-28T00:40:28.000Z,7.88
2022-09-28T00:41:28.000Z,7.92
2022-09-28T00:42:28.000Z,7.89
2022-09-28T00:43:28.000Z,7.92
2022-09-28T00:44:28.000Z,7.95
2022-09-28T00:45:28.000Z,7.91
2022-09-28T00:46:28.000Z,7.92
2022-09-28T00:47:28.000Z,7.96
2022-09-28T00:48:28.000Z,7.95
2022-09-28T00:49:28.000Z,7.96
2022-09-28T00:50:28.000Z,7.95
2022-09-28T00:51:28.000Z,7.99
2022-09-28T00:52:28.000Z,7.95
2022-09-28T00:53:28.000Z,7.94
2022-09-28T00:54:28.000Z,7.99
2022-09-28T00:55:28.000Z,7.91
2022-09-28T00:56:28.000Z,7.92
2022-09-28T00:57:28.000Z,7.96
2022-09-28T00:58:28.000Z,7.95
2022-09-28T00:59:28.000Z,7.94
2022-09-28T01:00:28.000Z,7.91
2022-09-28T01:01:28.000Z,7.92
2022-09-28T01:02:28.000Z,7.89
2022-09-28T01:03:28.000Z,7.91
2022-09-28T01:04:28.000Z,7.94
2022-09-28T01:05:28.000Z,7.88
2022-09-28T01:06:28.000Z,7.86
2022-09-28T01:07:28.000Z,7.86
2022-09-28T01:08:28.000Z,7.84
2022-09-28T01:09:28.000Z,7.82
2022-09-28T01:10:28.000Z,7.81
2022-09-28T01:11:27.000Z,7.81
2022-09-28T01:12:27.000Z,7.77
2022-09-28T01:13:27.000Z,7.76
2022-09-28T01:14:27.000Z,7.73
2022-09-28T01:15:27.000Z,7.70
2022-09-28T01:16:27.000Z,7.69
2022-09-28T01:17:27.000Z,7.70
2022-09-28T01:18:27.000Z,7.66
2022-09-28T01:19:27.000Z,7.60
2022-09-28T01:20:27.000Z,7.58
2022-09-28T01:21:27.000Z,7.52
2022-09-28T01:22:27.000Z,7.57
2022-09-28T01:23:27.000Z,7.50
2022-09-28T01:24:27.000Z,7.47
2022-09-28T01:25:27.000Z,7.47
2022-09-28T01:26:27.000Z,7.42
2022-09-28T01:27:27.000Z,7.41
2022-09-28T01:28:27.000Z,7.37
2022-09-28T01:29:27.000Z,7.33
2022-09-28T01:30:27.000Z,7.30
2022-09-28T01:31:27.000Z,7.29
2022-09-28T01:32:27.000Z,7.29
2022-09-28T01:33:27.000Z,7.27
2022-09-28T01:34:27.000Z,7.24
2022-09-28T01:35:27.000Z,7.21
2022-09-28T01:36:27.000Z,7.19
2022-09-28T01:37:27.000Z,7.16
2022-09-28T01:38:27.000Z,7.12
2022-09-28T01:39:27.000Z,7.18
2022-09-28T01:40:27.000Z,7.14
2022-09-28T01:41:27.000Z,7.12
2022-09-28T01:42:27.000Z,7.11
2022-09-28T01:43:27.000Z,7.09
2022-09-28T01:44:27.000Z,7.08
2022-09-28T01:45:27.000Z,7.08
2022-09-28T01:46:27.000Z,7.09
2022-09-28T01:47:27.000Z,7.09
2022-09-28T01:48:27.000Z,7.11
2022-09-28T01:49:27.000Z,7.09
2022-09-28T01:50:27.000Z,7.11
2022-09-28T01:51:27.000Z,7.09
2022-09-28T01:52:27.000Z,7.11
2022-09-28T01:53:27.000Z,7.05
2022-09-28T01:54:27.000Z,7.05
2022-09-28T01:55:27.000Z,7.01
2022-09-28T01:56:27.000Z,7.05
2022-09-28T01:57:27.000Z,6.99
2022-09-28T01:58:27.000Z,6.99
2022-09-28T01:59:27.000Z,7.00
2022-09-28T02:00:27.000Z,6.96
2022-09-28T02:01:27.000Z,6.94
2022-09-28T02:02:27.000Z,6.93
2022-09-28T02:03:27.000Z,6.91
2022-09-28T02:04:27.000Z,6.87
2022-09-28T02:05:27.000Z,6.86
2022-09-28T02:06:27.000Z,6.83
2022-09-28T02:07:27.000Z,6.83
2022-09-28T02:08:27.000Z,6.83
2022-09-28T02:09:27.000Z,6.81
2022-09-28T02:10:27.000Z,6.79
2022-09-28T02:11:27.000Z,6.78
2022-09-28T02:12:27.000Z,6.71
2022-09-28T02:13:27.000Z,6.72
2022-09-28T02:14:27.000Z,6.75
2022-09-28T02:15:27.000Z,6.72
2022-09-28T02:16:27.000Z,6.71
2022-09-28T02:17:27.000Z,6.75
2022-09-28T02:18:27.000Z,6.75
2022-09-28T02:19:27.000Z,6.72
2022-09-28T02:20:27.000Z,6.69
2022-09-28T02:21:27.000Z,6.71
2022-09-28T02:22:27.000Z,6.72
2022-09-28T02:23:27.000Z,6.69
2022-09-28T02:24:27.000Z,6.65
2022-09-28T02:25:26.000Z,6.64
2022-09-28T02:26:26.000Z,6.64
2022-09-28T02:27:26.000Z,6.68
2022-09-28T02:28:26.000Z,6.60
2022-09-28T02:29:26.000Z,6.64
2022-09-28T02:30:26.000Z,6.63
2022-09-28T02:31:26.000Z,6.58
2022-09-28T02:32:26.000Z,6.64
2022-09-28T02:33:26.000Z,6.61
2022-09-28T02:34:26.000Z,6.61
2022-09-28T02:35:26.000Z,6.55
2022-09-28T02:36:26.000Z,6.63
2022-09-28T02:37:26.000Z,6.61
2022-09-28T02:38:26.000Z,6.61
2022-09-28T02:39:26.000Z,6.58
2022-09-28T02:40:26.000Z,6.58
2022-09-28T02:41:26.000Z,6.55
2022-09-28T02:42:26.000Z,6.57
2022-09-28T02:43:26.000Z,6.55
2022-09-28T02:44:26.000Z,6.51
2022-09-28T02:45:26.000Z,6.54
2022-09-28T02:46:26.000Z,6.53
2022-09-28T02:47:26.000Z,6.53
2022-09-28T02:48:26.000Z,6.54
2022-09-28T02:49:26.000Z,6.51
2022-09-28T02:50:26.000Z,6.48
2022-09-28T02:51:26.000Z,6.46
2022-09-28T02:52:26.000Z,6.46
2022-09-28T02:53:26.000Z,6.45
2022-09-28T02:54:26.000Z,6.40
2022-09-28T02:55:26.000Z,6.40
2022-09-28T02:56:26.000Z,6.40
2022-09-28T02:57:26.000Z,6.38
2022-09-28T02:58:26.000Z,6.43
2022-09-28T02:59:26.000Z,6.39
2022-09-28T03:00:26.000Z,6.38
2022-09-28T03:01:26.000Z,6.39
2022-09-28T03:02:26.000Z,6.40
2022-09-28T03:03:26.000Z,6.45
2022-09-28T03:04:26.000Z,6.43
2022-09-28T03:05:26.000Z,6.38
2022-09-28T03:06:26.000Z,6.45
2022-09-28T03:07:26.000Z,6.40
2022-09-28T03:08:26.000Z,6.40
2022-09-28T03:09:26.000Z,6.39
2022-09-28T03:10:26.000Z,6.39
2022-09-28T03:11:26.000Z,6.42
2022-09-28T03:12:26.000Z,6.40
2022-09-28T03:13:26.000Z,6.42
2022-09-28T03:14:26.000Z,6.42
2022-09-28T03:15:26.000Z,6.40
2022-09-28T03:16:26.000Z,6.45
2022-09-28T03:17:26.000Z,6.45
2022-09-28T03:18:26.000Z,6.45
2022-09-28T03:19:26.000Z,6.53
2022-09-28T03:20:26.000Z,6.53
2022-09-28T03:21:26.000Z,6.53
2022-09-28T03:22:26.000Z,6.54
2022-09-28T03:23:26.000Z,6.57
2022-09-28T03:24:26.000Z,6.55
2022-09-28T03:25:26.000Z,6.60
2022-09-28T03:26:26.000Z,6.63
2022-09-28T03:27:26.000Z,6.65
2022-09-28T03:28:26.000Z,6.64
2022-09-28T03:29:26.000Z,6.69
2022-09-28T03:30:26.000Z,6.69
2022-09-28T03:31:26.000Z,6.75
2022-09-28T03:32:26.000Z,6.75
2022-09-28T03:33:26.000Z,6.76
2022-09-28T03:34:26.000Z,6.79
2022-09-28T03:35:26.000Z,6.79
2022-09-28T03:36:26.000Z,6.86
2022-09-28T03:37:26.000Z,6.83
2022-09-28T03:38:26.000Z,6.83
2022-09-28T03:39:26.000Z,6.87
2022-09-28T03:40:25.000Z,6.87
2022-09-28T03:41:25.000Z,6.89
2022-09-28T03:42:25.000Z,6.89
2022-09-28T03:43:25.000Z,6.89
2022-09-28T03:44:25.000Z,6.87
2022-09-28T03:45:25.000Z,6.89
2022-09-28T03:46:25.000Z,6.91
2022-09-28T03:47:25.000Z,6.91
2022-09-28T03:48:25.000Z,6.96
2022-09-28T03:49:25.000Z,6.96
2022-09-28T03:50:25.000Z,6.97
2022-09-28T03:51:25.000Z,7.00
2022-09-28T03:52:25.000Z,7.04
2022-09-28T03:53:25.000Z,7.00
2022-09-28T03:54:25.000Z,7.04
2022-09-28T03:55:25.000Z,7.04
2022-09-28T03:56:25.000Z,7.07
2022-09-28T03:57:25.000Z,7.07
2022-09-28T03:58:25.000Z,7.07
2022-09-28T03:59:25.000Z,7.09
2022-09-28T04:00:25.000Z,7.09
2022-09-28T04:01:25.000Z,7.08
2022-09-28T04:02:25.000Z,7.08
2022-09-28T04:03:25.000Z,7.07
2022-09-28T04:04:25.000Z,7.12
2022-09-28T04:05:25.000Z,7.12
2022-09-28T04:06:25.000Z,7.12
2022-09-28T04:07:25.000Z,7.15
2022-09-28T04:08:25.000Z,7.11
2022-09-28T04:09:25.000Z,7.11
2022-09-28T04:10:25.000Z,7.12
2022-09-28T04:11:25.000Z,7.12
2022-09-28T04:12:25.000Z,7.14
2022-09-28T04:13:25.000Z,7.12
2022-09-28T04:14:25.000Z,7.14
2022-09-28T04:15:25.000Z,7.16
2022-09-28T04:16:25.000Z,7.16
2022-09-28T04:17:25.000Z,7.18
2022-09-28T04:18:25.000Z,7.16
2022-09-28T04:19:25.000Z,7.18
2022-09-28T04:20:25.000Z,7.15
2022-09-28T04:21:25.000Z,7.19
2022-09-28T04:22:25.000Z,7.18
2022-09-28T04:23:25.000Z,7.18
2022-09-28T04:24:25.000Z,7.15
2022-09-28T04:25:25.000Z,7.19
2022-09-28T04:26:25.000Z,7.21
2022-09-28T04:27:25.000Z,7.21
2022-09-28T04:28:25.000Z,7.18
2022-09-28T04:29:25.000Z,7.15
2022-09-28T04:30:25.000Z,7.19
2022-09-28T04:31:25.000Z,7.15
2022-09-28T04:32:25.000Z,7.18
2022-09-28T04:33:25.000Z,7.18
2022-09-28T04:34:25.000Z,7.16
2022-09-28T04:35:25.000Z,7.18
2022-09-28T04:36:25.000Z,7.16
2022-09-28T04:37:25.000Z,7.19
2022-09-28T04:38:25.000Z,7.18
2022-09-28T04:39:25.000Z,7.15
2022-09-28T04:40:25.000Z,7.16
2022-09-28T04:41:25.000Z,7.21
2022-09-28T04:42:25.000Z,7.19
2022-09-28T04:43:25.000Z,7.16
2022-09-28T04:44:25.000Z,7.18
2022-09-28T04:45:25.000Z,7.21
2022-09-28T04:46:25.000Z,7.21
2022-09-28T04:47:25.000Z,7.18
2022-09-28T04:48:25.000Z,7.19
2022-09-28T04:49:25.000Z,7.19
2022-09-28T04:50:25.000Z,7.19
2022-09-28T04:51:25.000Z,7.18
2022-09-28T04:52:25.000Z,7.23
2022-09-28T04:53:25.000Z,7.23
2022-09-28T04:54:24.000Z,7.23
2022-09-28T04:55:24.000Z,7.26
2022-09-28T04:56:24.000Z,7.29
2022-09-28T04:57:24.000Z,7.24
2022-09-28T04:58:24.000Z,7.27
2022-09-28T04:59:24.000Z,7.29
2022-09-28T05:00:24.000Z,7.29
2022-09-28T05:01:24.000Z,7.33
2022-09-28T05:02:24.000Z,7.32
2022-09-28T05:03:24.000Z,7.33
2022-09-28T05:04:24.000Z,7.34
2022-09-28T05:04:24.000Z,7.34
2022-09-28T05:05:24.000Z,7.37
2022-09-28T05:05:24.000Z,7.37
2022-09-28T05:06:24.000Z,7.36
2022-09-28T05:06:24.000Z,7.36
2022-09-28T05:07:24.000Z,7.39
2022-09-28T05:07:24.000Z,7.39
2022-09-28T05:08:24.000Z,7.44
2022-09-28T05:08:24.000Z,7.44
2022-09-28T05:09:24.000Z,7.44
2022-09-28T05:10:24.000Z,7.45
2022-09-28T05:11:24.000Z,7.44
2022-09-28T05:12:24.000Z,7.47
2022-09-28T05:13:24.000Z,7.48
2022-09-28T05:14:24.000Z,7.51
2022-09-28T05:15:24.000Z,7.50
2022-09-28T05:16:24.000Z,7.52
2022-09-28T05:17:24.000Z,7.54
2022-09-28T05:18:24.000Z,7.55
2022-09-28T05:19:24.000Z,7.57
2022-09-28T05:20:24.000Z,7.55
2022-09-28T05:21:24.000Z,7.54
2022-09-28T05:22:24.000Z,7.57
2022-09-28T05:23:24.000Z,7.58
2022-09-28T05:24:24.000Z,7.58
2022-09-28T05:25:24.000Z,7.55
2022-09-28T05:26:24.000Z,7.58
2022-09-28T05:27:24.000Z,7.60
2022-09-28T05:28:24.000Z,7.62
2022-09-28T05:29:24.000Z,7.63
2022-09-28T05:30:24.000Z,7.63
2022-09-28T05:31:24.000Z,7.62
2022-09-28T05:32:24.000Z,7.58
2022-09-28T05:33:24.000Z,7.66
2022-09-28T05:34:24.000Z,7.63
2022-09-28T05:35:24.000Z,7.67
2022-09-28T05:36:24.000Z,7.67
2022-09-28T05:37:24.000Z,7.67
2022-09-28T05:38:24.000Z,7.69
2022-09-28T05:39:24.000Z,7.70
2022-09-28T05:40:24.000Z,7.70
2022-09-28T05:41:24.000Z,7.70
2022-09-28T05:42:24.000Z,7.71
2022-09-28T05:43:24.000Z,7.69
2022-09-28T05:44:24.000Z,7.77
2022-09-28T05:45:24.000Z,7.73
2022-09-28T05:46:24.000Z,7.77
2022-09-28T05:47:24.000Z,7.79
2022-09-28T05:48:24.000Z,7.81
2022-09-28T05:49:24.000Z,7.79
2022-09-28T05:50:24.000Z,7.79
2022-09-28T05:51:24.000Z,7.79
2022-09-28T05:52:24.000Z,7.82
2022-09-28T05:53:24.000Z,7.84
2022-09-28T05:54:24.000Z,7.84
2022-09-28T05:55:24.000Z,7.86
2022-09-28T05:56:24.000Z,7.88
2022-09-28T05:57:24.000Z,7.89
2022-09-28T05:58:24.000Z,7.88
2022-09-28T05:59:24.000Z,7.91
2022-09-28T06:00:24.000Z,7.92
2022-09-28T06:01:24.000Z,7.91
2022-09-28T06:02:24.000Z,7.92
2022-09-28T06:03:24.000Z,7.94
2022-09-28T06:04:24.000Z,7.95
2022-09-28T06:05:24.000Z,7.94
2022-09-28T06:06:24.000Z,7.96
2022-09-28T06:07:24.000Z,7.96
2022-09-28T06:08:23.000Z,8.02
2022-09-28T06:09:23.000Z,7.96
2022-09-28T06:10:23.000Z,7.99
2022-09-28T06:11:23.000Z,8.00
2022-09-28T06:12:23.000Z,8.02
2022-09-28T06:13:23.000Z,8.00
2022-09-28T06:14:23.000Z,8.00
2022-09-28T06:15:23.000Z,8.02
2022-09-28T06:16:23.000Z,8.03
2022-09-28T06:17:23.000Z,8.04
2022-09-28T06:18:23.000Z,8.06
2022-09-28T06:19:23.000Z,8.09
2022-09-28T06:20:23.000Z,8.06
2022-09-28T06:21:23.000Z,8.03
2022-09-28T06:22:23.000Z,8.06
2022-09-28T06:23:23.000Z,8.06
2022-09-28T06:24:23.000Z,8.07
2022-09-28T06:25:23.000Z,8.06
2022-09-28T06:26:23.000Z,8.09
2022-09-28T06:27:23.000Z,8.10
2022-09-28T06:28:23.000Z,8.10
2022-09-28T06:29:23.000Z,8.12
2022-09-28T06:30:23.000Z,8.10
2022-09-28T06:31:23.000Z,8.09
2022-09-28T06:32:23.000Z,8.12
2022-09-28T06:33:23.000Z,8.14
2022-09-28T06:34:23.000Z,8.12
2022-09-28T06:35:23.000Z,8.12
2022-09-28T06:36:23.000Z,8.12
2022-09-28T06:37:23.000Z,8.17
2022-09-28T06:38:23.000Z,8.17
2022-09-28T06:39:23.000Z,8.14
2022-09-28T06:40:23.000Z,8.17
2022-09-28T06:41:23.000Z,8.13
2022-09-28T06:42:23.000Z,8.17
2022-09-28T06:43:23.000Z,8.13
2022-09-28T06:44:23.000Z,8.14
2022-09-28T06:45:23.000Z,8.12
2022-09-28T06:46:23.000Z,8.17
2022-09-28T06:47:23.000Z,8.17
2022-09-28T06:48:23.000Z,8.20
2022-09-28T06:49:23.000Z,8.18
2022-09-28T06:50:23.000Z,8.20
2022-09-28T06:51:23.000Z,8.21
2022-09-28T06:52:23.000Z,8.20
2022-09-28T06:53:23.000Z,8.20
2022-09-28T06:54:23.000Z,8.20
2022-09-28T06:55:23.000Z,8.21
2022-09-28T06:56:23.000Z,8.24
2022-09-28T06:57:23.000Z,8.22
2022-09-28T06:58:23.000Z,8.25
2022-09-28T06:59:23.000Z,8.25
2022-09-28T07:00:23.000Z,8.27
2022-09-28T07:01:23.000Z,8.31
2022-09-28T07:02:23.000Z,8.29
2022-09-28T07:03:23.000Z,8.32
2022-09-28T07:04:23.000Z,8.36
2022-09-28T07:05:23.000Z,8.40
2022-09-28T07:06:23.000Z,8.37
2022-09-28T07:07:23.000Z,8.43
2022-09-28T07:08:23.000Z,8.43
2022-09-28T07:09:23.000Z,8.45
2022-09-28T07:09:23.000Z,8.45
2022-09-28T07:10:23.000Z,8.47
2022-09-28T07:10:23.000Z,8.47
2022-09-28T07:11:23.000Z,8.47
2022-09-28T07:11:23.000Z,8.47
2022-09-28T07:12:23.000Z,8.47
2022-09-28T07:12:23.000Z,8.47
2022-09-28T07:13:23.000Z,8.52
2022-09-28T07:13:23.000Z,8.52
2022-09-28T07:14:23.000Z,8.46
2022-09-28T07:15:23.000Z,8.50
2022-09-28T07:16:23.000Z,8.49
2022-09-28T07:17:23.000Z,8.52
2022-09-28T07:18:23.000Z,8.50
2022-09-28T07:19:23.000Z,8.46
2022-09-28T07:20:23.000Z,8.50
2022-09-28T07:21:23.000Z,8.54
2022-09-28T07:22:22.000Z,8.52
2022-09-28T07:23:22.000Z,8.50
2022-09-28T07:24:22.000Z,8.46
2022-09-28T07:25:22.000Z,8.49
2022-09-28T07:26:22.000Z,8.46
2022-09-28T07:27:22.000Z,8.45
2022-09-28T07:28:22.000Z,8.46
2022-09-28T07:29:22.000Z,8.45
2022-09-28T07:30:22.000Z,8.43
2022-09-28T07:31:22.000Z,8.42
2022-09-28T07:32:22.000Z,8.42
2022-09-28T07:33:22.000Z,8.42
2022-09-28T07:34:22.000Z,8.42
2022-09-28T07:35:22.000Z,8.39
2022-09-28T07:36:22.000Z,8.37
2022-09-28T07:37:22.000Z,8.36
2022-09-28T07:38:22.000Z,8.37
2022-09-28T07:39:22.000Z,8.36
2022-09-28T07:40:22.000Z,8.39
2022-09-28T07:41:22.000Z,8.39
2022-09-28T07:42:22.000Z,8.37
2022-09-28T07:43:22.000Z,8.36
2022-09-28T07:44:22.000Z,8.39
2022-09-28T07:45:22.000Z,8.39
2022-09-28T07:46:22.000Z,8.42
2022-09-28T07:47:22.000Z,8.40
2022-09-28T07:48:22.000Z,8.40
2022-09-28T07:49:22.000Z,8.43
2022-09-28T07:50:22.000Z,8.40
2022-09-28T07:51:22.000Z,8.43
2022-09-28T07:52:22.000Z,8.45
2022-09-28T07:53:22.000Z,8.45
2022-09-28T07:54:22.000Z,8.50
2022-09-28T07:55:22.000Z,8.49
2022-09-28T07:56:22.000Z,8.49
2022-09-28T07:57:22.000Z,8.47
2022-09-28T07:58:22.000Z,8.50
2022-09-28T07:59:22.000Z,8.46
2022-09-28T08:00:22.000Z,8.50
2022-09-28T08:01:22.000Z,8.52
2022-09-28T08:02:22.000Z,8.54
2022-09-28T08:03:22.000Z,8.58
2022-09-28T08:04:22.000Z,8.55
2022-09-28T08:05:22.000Z,8.57
2022-09-28T08:06:22.000Z,8.60
2022-09-28T08:07:22.000Z,8.60
2022-09-28T08:08:22.000Z,8.61
2022-09-28T08:09:22.000Z,8.64
2022-09-28T08:10:22.000Z,8.63
2022-09-28T08:11:22.000Z,8.61
2022-09-28T08:12:22.000Z,8.61
2022-09-28T08:13:22.000Z,8.57
2022-09-28T08:14:22.000Z,8.60
2022-09-28T08:15:22.000Z,8.58
2022-09-28T08:16:22.000Z,8.58
2022-09-28T08:17:22.000Z,8.63
2022-09-28T08:18:22.000Z,8.67
2022-09-28T08:19:22.000Z,8.63
2022-09-28T08:20:22.000Z,8.64
2022-09-28T08:21:22.000Z,8.61
2022-09-28T08:22:22.000Z,8.63
2022-09-28T08:23:22.000Z,8.64
2022-09-28T08:24:22.000Z,8.64
2022-09-28T08:25:22.000Z,8.64
2022-09-28T08:26:22.000Z,8.64
2022-09-28T08:27:22.000Z,8.65
2022-09-28T08:28:22.000Z,8.67
2022-09-28T08:29:22.000Z,8.65
2022-09-28T08:30:22.000Z,8.65
2022-09-28T08:31:22.000Z,8.63
2022-09-28T08:32:22.000Z,8.61
2022-09-28T08:33:22.000Z,8.57
2022-09-28T08:34:22.000Z,8.58
2022-09-28T08:35:21.000Z,8.55
2022-09-28T08:36:21.000Z,8.54
2022-09-28T08:37:21.000Z,8.49
2022-09-28T08:38:21.000Z,8.57
2022-09-28T08:39:21.000Z,8.49
2022-09-28T08:40:21.000Z,8.52
2022-09-28T08:41:21.000Z,8.55
2022-09-28T08:42:21.000Z,8.52
2022-09-28T08:43:21.000Z,8.50
2022-09-28T08:44:21.000Z,8.52
2022-09-28T08:45:21.000Z,8.54
2022-09-28T08:46:21.000Z,8.52
2022-09-28T08:47:21.000Z,8.49
2022-09-28T08:48:21.000Z,8.47
2022-09-28T08:49:21.000Z,8.45
2022-09-28T08:50:21.000Z,8.40
2022-09-28T08:51:21.000Z,8.43
2022-09-28T08:52:21.000Z,8.40
2022-09-28T08:53:21.000Z,8.36
2022-09-28T08:54:21.000Z,8.32
2022-09-28T08:55:21.000Z,8.28
2022-09-28T08:56:21.000Z,8.28
2022-09-28T08:57:21.000Z,8.32
2022-09-28T08:58:21.000Z,8.37
2022-09-28T08:59:21.000Z,8.36
2022-09-28T09:00:21.000Z,8.32
2022-09-28T09:01:21.000Z,8.28
2022-09-28T09:02:21.000Z,8.31
2022-09-28T09:03:21.000Z,8.37
2022-09-28T09:04:21.000Z,8.34
2022-09-28T09:05:21.000Z,8.34
2022-09-28T09:06:21.000Z,8.39
2022-09-28T09:07:21.000Z,8.34
2022-09-28T09:08:21.000Z,8.36
2022-09-28T09:09:21.000Z,8.39
2022-09-28T09:10:21.000Z,8.42
2022-09-28T09:11:21.000Z,8.45
2022-09-28T09:12:21.000Z,8.46
2022-09-28T09:13:21.000Z,8.45
2022-09-28T09:14:21.000Z,8.47
2022-09-28T09:15:21.000Z,8.54
2022-09-28T09:16:21.000Z,8.60
2022-09-28T09:17:21.000Z,8.61
2022-09-28T09:18:21.000Z,8.67
2022-09-28T09:19:21.000Z,8.70
2022-09-28T09:20:21.000Z,8.78
2022-09-28T09:21:21.000Z,8.85
2022-09-28T09:22:21.000Z,8.80
2022-09-28T09:23:21.000Z,8.83
2022-09-28T09:24:21.000Z,8.91
2022-09-28T09:25:21.000Z,8.96
2022-09-28T09:26:21.000Z,9.04
2022-09-28T09:27:21.000Z,9.15
2022-09-28T09:28:21.000Z,9.17
2022-09-28T09:29:21.000Z,9.24
2022-09-28T09:30:21.000Z,9.24
2022-09-28T09:31:21.000Z,9.30
2022-09-28T09:32:21.000Z,9.27
2022-09-28T09:33:21.000Z,9.30
2022-09-28T09:34:21.000Z,9.31
2022-09-28T09:35:21.000Z,9.32
2022-09-28T09:36:21.000Z,9.32
2022-09-28T09:37:21.000Z,9.35
2022-09-28T09:38:21.000Z,9.41
2022-09-28T09:39:21.000Z,9.45
2022-09-28T09:40:21.000Z,9.45
2022-09-28T09:41:21.000Z,9.52
2022-09-28T09:42:21.000Z,9.62
2022-09-28T09:43:21.000Z,9.68
2022-09-28T09:44:21.000Z,9.70
2022-09-28T09:45:21.000Z,9.75
2022-09-28T09:46:21.000Z,9.77
2022-09-28T09:47:21.000Z,9.78
2022-09-28T09:48:21.000Z,9.81
2022-09-28T09:49:20.000Z,9.85
2022-09-28T09:50:20.000Z,9.80
2022-09-28T09:51:20.000Z,9.77
2022-09-28T09:52:20.000Z,9.74
2022-09-28T09:53:20.000Z,9.74
2022-09-28T09:54:20.000Z,9.75
2022-09-28T09:55:20.000Z,9.73
2022-09-28T09:56:20.000Z,9.71
2022-09-28T09:57:20.000Z,9.67
2022-09-28T09:58:20.000Z,9.65
2022-09-28T09:59:20.000Z,9.60
2022-09-28T10:00:20.000Z,9.56
2022-09-28T10:01:20.000Z,9.56
2022-09-28T10:02:20.000Z,9.59
2022-09-28T10:03:20.000Z,9.58
2022-09-28T10:04:20.000Z,9.59
2022-09-28T10:05:20.000Z,9.59
2022-09-28T10:06:20.000Z,9.59
2022-09-28T10:07:20.000Z,9.67
2022-09-28T10:08:20.000Z,9.62
2022-09-28T10:09:20.000Z,9.62
2022-09-28T10:10:20.000Z,9.65
2022-09-28T10:11:20.000Z,9.63
2022-09-28T10:12:20.000Z,9.65
2022-09-28T10:13:20.000Z,9.65
2022-09-28T10:14:20.000Z,9.68
2022-09-28T10:15:20.000Z,9.73
2022-09-28T10:16:20.000Z,9.74
2022-09-28T10:17:20.000Z,9.65
2022-09-28T10:18:20.000Z,9.67
2022-09-28T10:19:20.000Z,9.63
2022-09-28T10:20:20.000Z,9.63
2022-09-28T10:21:20.000Z,9.62
2022-09-28T10:22:20.000Z,9.60
2022-09-28T10:23:20.000Z,9.63
2022-09-28T10:24:20.000Z,9.65
2022-09-28T10:25:20.000Z,9.62
2022-09-28T10:26:20.000Z,9.62
2022-09-28T10:27:20.000Z,9.53
2022-09-28T10:28:20.000Z,9.45
2022-09-28T10:29:20.000Z,9.35
2022-09-28T10:30:20.000Z,9.22
2022-09-28T10:31:20.000Z,9.10
2022-09-28T10:32:20.000Z,9.00
2022-09-28T10:33:20.000Z,8.94
2022-09-28T10:34:20.000Z,8.86
2022-09-28T10:35:20.000Z,8.82
2022-09-28T10:36:20.000Z,8.78
2022-09-28T10:37:20.000Z,8.75
2022-09-28T10:38:20.000Z,8.71
2022-09-28T10:39:20.000Z,8.73
2022-09-28T10:40:20.000Z,8.70
2022-09-28T10:41:20.000Z,8.71
2022-09-28T10:42:20.000Z,8.73
2022-09-28T10:43:20.000Z,8.75
2022-09-28T10:44:20.000Z,8.78
2022-09-28T10:45:20.000Z,8.82
2022-09-28T10:46:20.000Z,8.86
2022-09-28T10:47:20.000Z,8.85
2022-09-28T10:48:20.000Z,8.86
2022-09-28T10:49:20.000Z,8.88
2022-09-28T10:50:20.000Z,8.89
2022-09-28T10:51:20.000Z,8.86
2022-09-28T10:52:20.000Z,8.86
2022-09-28T10:53:20.000Z,8.88
2022-09-28T10:54:20.000Z,8.89
2022-09-28T10:55:20.000Z,8.83
2022-09-28T10:56:20.000Z,8.88
2022-09-28T10:57:20.000Z,8.85
2022-09-28T10:58:20.000Z,8.85
2022-09-28T10:59:20.000Z,8.85
2022-09-28T11:00:20.000Z,8.89
2022-09-28T11:01:20.000Z,8.89
2022-09-28T11:02:20.000Z,8.96
2022-09-28T11:03:20.000Z,9.01
2022-09-28T11:04:19.000Z,9.12
2022-09-28T11:05:19.000Z,9.13
2022-09-28T11:06:19.000Z,9.15
2022-09-28T11:07:19.000Z,9.22
2022-09-28T11:08:19.000Z,9.20
2022-09-28T11:09:19.000Z,9.22
2022-09-28T11:10:19.000Z,9.27
2022-09-28T11:11:19.000Z,9.31
2022-09-28T11:12:19.000Z,9.35
2022-09-28T11:13:19.000Z,9.38
2022-09-28T11:14:19.000Z,9.40
2022-09-28T11:15:19.000Z,9.40
2022-09-28T11:16:19.000Z,9.44
2022-09-28T11:17:19.000Z,9.48
2022-09-28T11:18:19.000Z,9.52
2022-09-28T11:19:19.000Z,9.55
2022-09-28T11:20:19.000Z,9.52
2022-09-28T11:21:19.000Z,9.53
2022-09-28T11:22:19.000Z,9.52
2022-09-28T11:23:19.000Z,9.41
2022-09-28T11:24:19.000Z,9.40
2022-09-28T11:25:19.000Z,9.42
2022-09-28T11:26:19.000Z,9.44
2022-09-28T11:27:19.000Z,9.45
2022-09-28T11:28:19.000Z,9.49
2022-09-28T11:29:19.000Z,9.55
2022-09-28T11:29:19.000Z,9.55
2022-09-28T11:30:19.000Z,9.56
2022-09-28T11:30:19.000Z,9.56
2022-09-28T11:31:19.000Z,9.56
2022-09-28T11:31:19.000Z,9.56
2022-09-28T11:32:19.000Z,9.70
2022-09-28T11:32:19.000Z,9.70
2022-09-28T11:33:19.000Z,9.74
2022-09-28T11:33:19.000Z,9.74
2022-09-28T11:34:19.000Z,9.86
2022-09-28T11:35:19.000Z,9.92
2022-09-28T11:36:19.000Z,10.02
2022-09-28T11:37:19.000Z,10.07
2022-09-28T11:38:19.000Z,10.14
2022-09-28T11:39:19.000Z,10.16
2022-09-28T11:39:19.000Z,10.16
2022-09-28T11:40:19.000Z,10.17
2022-09-28T11:40:19.000Z,10.17
2022-09-28T11:41:19.000Z,10.17
2022-09-28T11:41:19.000Z,10.17
2022-09-28T11:42:19.000Z,10.20
2022-09-28T11:42:19.000Z,10.20
2022-09-28T11:43:19.000Z,10.25
2022-09-28T11:43:19.000Z,10.25
2022-09-28T11:44:19.000Z,10.25
2022-09-28T11:45:19.000Z,10.31
2022-09-28T11:46:19.000Z,10.42
2022-09-28T11:47:19.000Z,10.49
2022-09-28T11:48:19.000Z,10.58
2022-09-28T11:49:19.000Z,10.73
2022-09-28T11:50:19.000Z,10.86
2022-09-28T11:51:19.000Z,10.95
2022-09-28T11:52:19.000Z,11.06
2022-09-28T11:53:19.000Z,11.20
2022-09-28T11:54:19.000Z,11.30
2022-09-28T11:55:19.000Z,11.33
2022-09-28T11:56:19.000Z,11.38
2022-09-28T11:57:19.000Z,11.41
2022-09-28T11:58:19.000Z,11.42
2022-09-28T11:59:19.000Z,11.38
2022-09-28T12:00:19.000Z,11.30
2022-09-28T12:01:19.000Z,11.23
2022-09-28T12:02:19.000Z,11.12
2022-09-28T12:03:19.000Z,11.06
2022-09-28T12:04:19.000Z,11.05
2022-09-28T12:05:19.000Z,10.94
2022-09-28T12:06:19.000Z,10.84
2022-09-28T12:07:19.000Z,10.75
2022-09-28T12:08:19.000Z,10.66
2022-09-28T12:09:19.000Z,10.62
2022-09-28T12:10:19.000Z,10.60
2022-09-28T12:11:19.000Z,10.58
2022-09-28T12:12:19.000Z,10.60
2022-09-28T12:13:19.000Z,10.52
2022-09-28T12:14:19.000Z,10.54
2022-09-28T12:15:19.000Z,10.51
2022-09-28T12:16:19.000Z,10.46
2022-09-28T12:17:19.000Z,10.47
2022-09-28T12:18:18.000Z,10.43
2022-09-28T12:19:18.000Z,10.39
2022-09-28T12:20:18.000Z,10.44
2022-09-28T12:21:18.000Z,10.43
2022-09-28T12:22:18.000Z,10.35
2022-09-28T12:23:18.000Z,10.42
2022-09-28T12:24:18.000Z,10.43
2022-09-28T12:25:18.000Z,10.44
2022-09-28T12:26:18.000Z,10.51
2022-09-28T12:27:18.000Z,10.57
2022-09-28T12:28:18.000Z,10.62
2022-09-28T12:29:18.000Z,10.63
2022-09-28T12:30:18.000Z,10.69
2022-09-28T12:31:18.000Z,10.72
2022-09-28T12:32:18.000Z,10.75
2022-09-28T12:33:18.000Z,10.73
2022-09-28T12:34:18.000Z,10.76
2022-09-28T12:34:18.000Z,10.76
2022-09-28T12:35:18.000Z,10.80
2022-09-28T12:35:18.000Z,10.80
2022-09-28T12:36:18.000Z,10.83
2022-09-28T12:36:18.000Z,10.83
2022-09-28T12:37:18.000Z,10.81
2022-09-28T12:37:18.000Z,10.81
2022-09-28T12:38:18.000Z,10.83
2022-09-28T12:38:18.000Z,10.83
2022-09-28T12:39:18.000Z,10.81
2022-09-28T12:40:18.000Z,10.80
2022-09-28T12:41:18.000Z,10.83
2022-09-28T12:42:18.000Z,10.86
2022-09-28T12:43:18.000Z,10.86
2022-09-28T12:44:18.000Z,10.88
2022-09-28T12:45:18.000Z,10.90
2022-09-28T12:46:18.000Z,10.88
2022-09-28T12:47:18.000Z,10.86
2022-09-28T12:48:18.000Z,10.81
2022-09-28T12:49:18.000Z,10.81
2022-09-28T12:50:18.000Z,10.78